Time;durP1;ratioP1;P1;durP2;ratioP2;P2;SDS_P1;SDS_P2;PMS_P1;PMS_P2;Temp;Humidity;BMP_temperature;BMP_pressure;BME280_temperature;BME280_humidity;BME280_pressure;Samples;Min_cycle;Max_cycle;Signal;HPM_P1;HPM_P2
2021/06/13 00:00:19;0.00;0.00;0.62;0.00;0.00;0.62;;;;;24.10;59.00;;;;;;2278840;61;1036;-91
2021/06/13 00:02:45;120728.00;0.40;209.34;32458.00;0.11;56.84;;;;;24.10;59.00;;;;;;2273327;61;1105;-88
2021/06/13 00:05:14;0.00;0.00;0.62;0.00;0.00;0.62;;;;;24.10;59.10;;;;;;2273594;61;1196;-89
2021/06/13 00:07:40;0.00;0.00;0.62;0.00;0.00;0.62;;;;;24.10;59.10;;;;;;2277620;61;1006;-88
2021/06/13 00:10:06;0.00;0.00;0.62;0.00;0.00;0.62;;;;;24.10;59.10;;;;;;2277205;61;1849;-91
2021/06/13 00:12:32;0.00;0.00;0.62;0.00;0.00;0.62;;;;;24.10;59.10;;;;;;2280301;61;1055;-91
2021/06/13 00:14:57;0.00;0.00;0.62;0.00;0.00;0.62;;;;;24.10;59.20;;;;;;2283119;61;1199;-88
2021/06/13 00:17:23;63574.00;0.21;110.65;0.00;0.00;0.62;;;;;24.10;59.10;;;;;;2284124;61;1984;-91
2021/06/13 00:19:49;0.00;0.00;0.62;0.00;0.00;0.62;;;;;24.10;59.20;;;;;;2277511;61;1146;-88
2021/06/13 00:22:15;25795.00;0.09;45.30;0.00;0.00;0.62;;;;;24.10;59.10;;;;;;2269295;61;946;-88
2021/06/13 00:24:40;0.00;0.00;0.62;0.00;0.00;0.62;;;;;24.10;59.20;;;;;;2269266;61;1165;-87
2021/06/13 00:27:06;0.00;0.00;0.62;0.00;0.00;0.62;;;;;24.10;59.40;;;;;;2272916;61;924;-88
2021/06/13 00:29:32;0.00;0.00;0.62;0.00;0.00;0.62;;;;;24.10;59.20;;;;;;2269257;61;1205;-87
2021/06/13 00:31:57;0.00;0.00;0.62;0.00;0.00;0.62;;;;;24.10;59.20;;;;;;2268804;61;927;-88
2021/06/13 00:34:24;0.00;0.00;0.62;0.00;0.00;0.62;;;;;24.10;59.20;;;;;;2269166;61;1341;-88
2021/06/13 00:36:51;93207.00;0.31;161.84;0.00;0.00;0.62;;;;;24.10;59.20;;;;;;2273109;61;2009;-90
2021/06/13 00:39:16;0.00;0.00;0.62;0.00;0.00;0.62;;;;;24.10;59.40;;;;;;2269052;61;965;-87
2021/06/13 00:41:42;0.00;0.00;0.62;0.00;0.00;0.62;;;;;24.10;59.20;;;;;;2273124;61;1023;-88
2021/06/13 00:44:07;0.00;0.00;0.62;0.00;0.00;0.62;;;;;24.10;59.40;;;;;;2272980;61;1045;-88
2021/06/13 00:46:33;0.00;0.00;0.62;0.00;0.00;0.62;;;;;24.10;59.40;;;;;;2269414;61;1218;-88
2021/06/13 00:48:59;191976.00;0.64;332.11;66777.00;0.22;116.19;;;;;24.10;59.40;;;;;;2273149;61;925;-85
2021/06/13 00:51:25;0.00;0.00;0.62;0.00;0.00;0.62;;;;;24.10;59.50;;;;;;2269444;61;1079;-85
2021/06/13 00:53:50;0.00;0.00;0.62;0.00;0.00;0.62;;;;;24.10;59.50;;;;;;2269467;61;1213;-85
2021/06/13 00:56:16;0.00;0.00;0.62;0.00;0.00;0.62;;;;;24.10;59.50;;;;;;2273527;61;1176;-85
2021/06/13 00:58:42;0.00;0.00;0.62;0.00;0.00;0.62;;;;;24.10;59.50;;;;;;2269430;61;2020;-85
2021/06/13 01:01:07;0.00;0.00;0.62;0.00;0.00;0.62;;;;;24.10;59.50;;;;;;2273037;61;1145;-85
2021/06/13 01:03:33;0.00;0.00;0.62;0.00;0.00;0.62;;;;;24.10;59.60;;;;;;2273120;61;1007;-86
2021/06/13 01:05:58;32663.00;0.11;57.19;0.00;0.00;0.62;;;;;24.10;59.60;;;;;;2272083;61;1068;-86
2021/06/13 01:08:41;0.00;0.00;0.62;0.00;0.00;0.62;;;;;24.10;59.60;;;;;;2268423;61;1213;-85
2021/06/13 01:11:25;65534.00;0.22;114.04;0.00;0.00;0.62;;;;;24.10;59.60;;;;;;2273183;61;997;-86
2021/06/13 01:13:57;0.00;0.00;0.62;0.00;0.00;0.62;;;;;24.10;59.60;;;;;;2272683;61;1048;-85
2021/06/13 01:16:27;0.00;0.00;0.62;0.00;0.00;0.62;;;;;24.10;59.70;;;;;;2272674;61;944;-87
2021/06/13 01:19:16;0.00;0.00;0.62;0.00;0.00;0.62;;;;;24.10;59.70;;;;;;2269019;61;1955;-86
2021/06/13 01:21:56;0.00;0.00;0.62;0.00;0.00;0.62;;;;;24.10;59.70;;;;;;2269396;61;1047;-85
2021/06/13 01:24:37;0.00;0.00;0.62;0.00;0.00;0.62;;;;;24.10;59.70;;;;;;2268876;61;1094;-85
2021/06/13 01:27:06;0.00;0.00;0.62;0.00;0.00;0.62;;;;;24.10;59.70;;;;;;2265481;61;959;-85
2021/06/13 01:29:33;0.00;0.00;0.62;0.00;0.00;0.62;;;;;24.10;59.80;;;;;;2268851;61;1064;-88
2021/06/13 01:32:02;0.00;0.00;0.62;0.00;0.00;0.62;;;;;24.10;59.80;;;;;;2268683;61;1082;-85
2021/06/13 01:34:35;0.00;0.00;0.62;0.00;0.00;0.62;;;;;24.10;59.80;;;;;;2268908;61;1220;-87
2021/06/13 01:37:04;0.00;0.00;0.62;0.00;0.00;0.62;;;;;24.10;59.80;;;;;;2265399;61;2004;-86
2021/06/13 01:39:30;0.00;0.00;0.62;0.00;0.00;0.62;;;;;24.10;59.80;;;;;;2268611;61;1059;-87
2021/06/13 01:41:57;0.00;0.00;0.62;0.00;0.00;0.62;;;;;24.10;59.80;;;;;;2272716;61;1192;-86
2021/06/13 01:44:24;0.00;0.00;0.62;0.00;0.00;0.62;;;;;24.10;59.80;;;;;;2268720;61;1204;-88
2021/06/13 01:46:50;0.00;0.00;0.62;0.00;0.00;0.62;;;;;24.10;59.80;;;;;;2268502;61;970;-88
2021/06/13 01:49:17;0.00;0.00;0.62;0.00;0.00;0.62;;;;;24.00;60.00;;;;;;2268924;61;893;-88
2021/06/13 01:51:43;0.00;0.00;0.62;0.00;0.00;0.62;;;;;24.00;60.20;;;;;;2265346;61;1774;-88
2021/06/13 01:54:09;0.00;0.00;0.62;0.00;0.00;0.62;;;;;24.10;60.10;;;;;;2268830;61;914;-89
2021/06/13 01:56:42;0.00;0.00;0.62;0.00;0.00;0.62;;;;;24.10;60.10;;;;;;2272205;61;1873;-88
2021/06/13 01:59:08;0.00;0.00;0.62;0.00;0.00;0.62;;;;;24.00;60.10;;;;;;2269079;61;930;-88
2021/06/13 02:01:33;0.00;0.00;0.62;0.00;0.00;0.62;;;;;24.10;60.00;;;;;;2268415;61;944;-88
2021/06/13 02:03:59;0.00;0.00;0.62;0.00;0.00;0.62;;;;;24.10;60.00;;;;;;2268896;61;981;-85
2021/06/13 02:06:29;0.00;0.00;0.62;0.00;0.00;0.62;;;;;24.00;60.10;;;;;;2268528;61;1075;-86
2021/06/13 02:08:54;0.00;0.00;0.62;0.00;0.00;0.62;;;;;24.00;60.20;;;;;;2268723;61;1053;-85
2021/06/13 02:11:20;0.00;0.00;0.62;0.00;0.00;0.62;;;;;24.00;60.20;;;;;;2268798;61;1371;-86
2021/06/13 02:13:46;0.00;0.00;0.62;0.00;0.00;0.62;;;;;24.00;60.20;;;;;;2268490;61;845;-86
2021/06/13 02:16:12;125824.00;0.42;218.13;58095.00;0.19;101.18;;;;;24.00;60.50;;;;;;2268649;61;1136;-86
2021/06/13 02:18:38;0.00;0.00;0.62;0.00;0.00;0.62;;;;;24.00;60.50;;;;;;2268870;61;2006;-86
2021/06/13 02:21:07;0.00;0.00;0.62;0.00;0.00;0.62;;;;;24.00;60.50;;;;;;2268293;61;1339;-86
2021/06/13 02:23:33;0.00;0.00;0.62;0.00;0.00;0.62;;;;;24.00;60.50;;;;;;2268452;61;1285;-85
2021/06/13 02:25:59;0.00;0.00;0.62;0.00;0.00;0.62;;;;;24.00;60.50;;;;;;2268394;61;887;-87
2021/06/13 02:28:25;0.00;0.00;0.62;0.00;0.00;0.62;;;;;24.00;60.50;;;;;;2272244;61;879;-86
2021/06/13 02:30:52;32350.00;0.11;56.65;0.00;0.00;0.62;;;;;24.00;60.60;;;;;;2268624;61;1673;-86
2021/06/13 02:33:17;0.00;0.00;0.62;0.00;0.00;0.62;;;;;24.00;60.50;;;;;;2268912;61;976;-88
2021/06/13 02:35:46;0.00;0.00;0.62;0.00;0.00;0.62;;;;;24.00;60.50;;;;;;2268259;61;992;-87
2021/06/13 02:38:12;0.00;0.00;0.62;0.00;0.00;0.62;;;;;24.00;60.50;;;;;;2268485;61;2006;-85
2021/06/13 02:40:38;0.00;0.00;0.62;0.00;0.00;0.62;;;;;24.00;60.60;;;;;;2268614;61;909;-87
2021/06/13 02:43:04;0.00;0.00;0.62;0.00;0.00;0.62;;;;;24.00;60.60;;;;;;2272090;61;984;-89
2021/06/13 02:45:29;0.00;0.00;0.62;0.00;0.00;0.62;;;;;24.00;60.60;;;;;;2272376;61;925;-88
2021/06/13 02:47:55;0.00;0.00;0.62;0.00;0.00;0.62;;;;;24.00;60.60;;;;;;2272141;61;1005;-91
2021/06/13 02:50:22;18135.00;0.06;32.04;0.00;0.00;0.62;;;;;24.00;60.60;;;;;;2268323;61;943;-87
2021/06/13 02:53:09;0.00;0.00;0.62;0.00;0.00;0.62;;;;;24.00;60.60;;;;;;2268528;61;871;-88
2021/06/13 02:55:54;0.00;0.00;0.62;0.00;0.00;0.62;;;;;24.00;60.60;;;;;;2272052;61;931;-88
2021/06/13 02:58:31;31410.00;0.10;55.02;0.00;0.00;0.62;;;;;24.00;60.60;;;;;;2268391;61;1935;-91
2021/06/13 03:00:57;0.00;0.00;0.62;0.00;0.00;0.62;;;;;23.90;60.60;;;;;;2268552;61;890;-88
2021/06/13 03:03:22;0.00;0.00;0.62;0.00;0.00;0.62;;;;;23.90;60.60;;;;;;2265272;61;2136;-88
2021/06/13 03:05:48;0.00;0.00;0.62;0.00;0.00;0.62;;;;;23.90;60.60;;;;;;2268408;61;961;-88
2021/06/13 03:08:14;0.00;0.00;0.62;0.00;0.00;0.62;;;;;23.90;60.60;;;;;;2264964;61;907;-87
2021/06/13 03:10:40;0.00;0.00;0.62;0.00;0.00;0.62;;;;;23.90;60.60;;;;;;2271517;61;962;-88
2021/06/13 03:13:05;0.00;0.00;0.62;0.00;0.00;0.62;;;;;23.90;60.60;;;;;;2268059;61;870;-88
2021/06/13 03:15:31;0.00;0.00;0.62;0.00;0.00;0.62;;;;;23.90;60.60;;;;;;2268102;61;930;-88
2021/06/13 03:17:57;0.00;0.00;0.62;0.00;0.00;0.62;;;;;23.90;60.60;;;;;;2268575;61;1994;-89
2021/06/13 03:20:22;0.00;0.00;0.62;0.00;0.00;0.62;;;;;23.90;60.60;;;;;;2268606;61;999;-89
2021/06/13 03:22:48;0.00;0.00;0.62;0.00;0.00;0.62;;;;;23.90;60.60;;;;;;2268824;61;850;-91
2021/06/13 03:25:13;0.00;0.00;0.62;0.00;0.00;0.62;;;;;23.90;60.60;;;;;;2272505;61;871;-89
2021/06/13 03:27:41;0.00;0.00;0.62;0.00;0.00;0.62;;;;;23.90;60.60;;;;;;2269460;61;1029;-89
2021/06/13 03:30:07;0.00;0.00;0.62;0.00;0.00;0.62;;;;;23.90;60.60;;;;;;2269426;61;981;-89
2021/06/13 03:32:33;0.00;0.00;0.62;0.00;0.00;0.62;;;;;23.90;60.60;;;;;;2269617;61;908;-89
2021/06/13 03:34:58;0.00;0.00;0.62;0.00;0.00;0.62;;;;;23.90;60.60;;;;;;2269541;61;907;-89
2021/06/13 03:37:24;0.00;0.00;0.62;0.00;0.00;0.62;;;;;23.90;60.60;;;;;;2269168;61;2013;-90
2021/06/13 03:39:49;0.00;0.00;0.62;0.00;0.00;0.62;;;;;23.90;60.60;;;;;;2269661;61;875;-89
2021/06/13 03:42:15;0.00;0.00;0.62;0.00;0.00;0.62;;;;;23.90;60.60;;;;;;2269304;61;924;-89
2021/06/13 03:44:41;0.00;0.00;0.62;0.00;0.00;0.62;;;;;23.90;60.60;;;;;;2269377;61;917;-89
2021/06/13 03:47:07;0.00;0.00;0.62;0.00;0.00;0.62;;;;;23.90;60.60;;;;;;2269354;61;1162;-91
2021/06/13 03:49:33;0.00;0.00;0.62;0.00;0.00;0.62;;;;;23.90;60.60;;;;;;2268969;61;2146;-91
2021/06/13 03:51:59;0.00;0.00;0.62;0.00;0.00;0.62;;;;;24.00;60.60;;;;;;2268940;61;1075;-90
2021/06/13 03:54:25;0.00;0.00;0.62;0.00;0.00;0.62;;;;;24.00;60.60;;;;;;2268603;61;1159;-89
2021/06/13 03:56:53;0.00;0.00;0.62;0.00;0.00;0.62;;;;;23.90;60.60;;;;;;2269041;61;2006;-89
2021/06/13 03:59:22;181110.00;0.60;313.40;49372.00;0.16;86.10;;;;;23.90;60.60;;;;;;2268890;61;916;-89
2021/06/13 04:01:47;0.00;0.00;0.62;0.00;0.00;0.62;;;;;24.00;60.60;;;;;;2269825;61;1052;-91
2021/06/13 04:04:13;84396.00;0.28;146.63;0.00;0.00;0.62;;;;;24.00;60.60;;;;;;2270748;61;1011;-90
2021/06/13 04:06:39;43209.00;0.14;75.44;0.00;0.00;0.62;;;;;24.00;60.20;;;;;;2270828;61;973;-92
2021/06/13 04:09:05;237655.00;0.79;410.72;0.00;0.00;0.62;;;;;23.50;58.10;;;;;;2271595;61;1041;-92
2021/06/13 04:11:31;0.00;0.00;0.62;0.00;0.00;0.62;;;;;23.00;58.40;;;;;;2271469;61;947;-92
2021/06/13 04:13:56;0.00;0.00;0.62;0.00;0.00;0.62;;;;;22.60;59.40;;;;;;2267719;61;1642;-92
2021/06/13 04:16:22;0.00;0.00;0.62;0.00;0.00;0.62;;;;;22.40;59.60;;;;;;2271797;61;990;-92
2021/06/13 04:18:48;0.00;0.00;0.62;0.00;0.00;0.62;;;;;22.00;60.70;;;;;;2271862;61;2014;-91
2021/06/13 04:21:14;0.00;0.00;0.62;0.00;0.00;0.62;;;;;22.30;59.70;;;;;;2271482;61;1054;-92
2021/06/13 04:23:42;55657.00;0.19;96.97;0.00;0.00;0.62;;;;;22.30;59.80;;;;;;2271504;61;870;-92
2021/06/13 04:26:18;30800.00;0.10;53.97;0.00;0.00;0.62;;;;;22.20;60.30;;;;;;2271611;61;958;-92
2021/06/13 04:28:43;0.00;0.00;0.62;0.00;0.00;0.62;;;;;21.90;60.90;;;;;;2268410;61;1725;-92
2021/06/13 04:31:16;38079.00;0.13;66.56;0.00;0.00;0.62;;;;;21.80;61.90;;;;;;2269000;61;2086;-92
2021/06/13 04:33:45;0.00;0.00;0.62;0.00;0.00;0.62;;;;;21.60;62.10;;;;;;2273604;61;973;-92
2021/06/13 04:36:12;411276.00;1.37;709.19;0.00;0.00;0.62;;;;;21.60;62.10;;;;;;2270241;61;928;-92
2021/06/13 04:38:38;95380.00;0.32;165.60;0.00;0.00;0.62;;;;;21.60;62.10;;;;;;2271488;61;2022;-93
2021/06/13 04:41:04;173702.00;0.58;300.64;7962.00;0.03;14.42;;;;;21.80;61.20;;;;;;2271323;61;1067;-92
2021/06/13 04:43:33;0.00;0.00;0.62;0.00;0.00;0.62;;;;;21.50;62.40;;;;;;2271923;61;989;-91
2021/06/13 04:45:59;67530.00;0.23;117.49;0.00;0.00;0.62;;;;;21.20;63.40;;;;;;2272124;61;1048;-91
2021/06/13 04:48:25;0.00;0.00;0.62;0.00;0.00;0.62;;;;;21.30;63.20;;;;;;2274443;61;1621;-92
2021/06/13 04:50:50;0.00;0.00;0.62;0.00;0.00;0.62;;;;;21.20;63.80;;;;;;2273424;61;2672;-92
2021/06/13 04:53:54;0.00;0.00;0.62;0.00;0.00;0.62;;;;;21.20;63.70;;;;;;2268485;61;1183;-92
2021/06/13 04:56:37;0.00;0.00;0.62;0.00;0.00;0.62;;;;;21.20;63.80;;;;;;2270552;61;997;-92
2021/06/13 04:59:05;0.00;0.00;0.62;0.00;0.00;0.62;;;;;21.30;63.30;;;;;;2270497;61;2022;-91
2021/06/13 05:01:31;36394.00;0.12;63.65;0.00;0.00;0.62;;;;;21.40;62.50;;;;;;2267689;61;1012;-92
2021/06/13 05:03:56;0.00;0.00;0.62;0.00;0.00;0.62;;;;;21.20;63.70;;;;;;2267857;61;1638;-92
2021/06/13 05:06:22;0.00;0.00;0.62;0.00;0.00;0.62;;;;;21.20;62.90;;;;;;2265076;61;886;-91
2021/06/13 05:08:49;150161.00;0.50;260.08;0.00;0.00;0.62;;;;;21.30;62.70;;;;;;2263007;61;995;-92
2021/06/13 05:11:18;66350.00;0.22;115.45;0.00;0.00;0.62;;;;;21.40;61.90;;;;;;2264542;61;1011;-91
2021/06/13 05:13:44;113607.00;0.38;197.05;0.00;0.00;0.62;;;;;21.50;62.00;;;;;;2267784;61;1347;-92
2021/06/13 05:16:10;24489.00;0.08;43.04;0.00;0.00;0.62;;;;;21.30;62.40;;;;;;2268208;61;1442;-92
2021/06/13 05:18:35;0.00;0.00;0.62;0.00;0.00;0.62;;;;;21.30;62.80;;;;;;2271721;61;1943;-92
2021/06/13 05:21:01;0.00;0.00;0.62;0.00;0.00;0.62;;;;;21.40;62.30;;;;;;2275052;61;1416;-91
2021/06/13 05:23:27;0.00;0.00;0.62;0.00;0.00;0.62;;;;;21.30;62.50;;;;;;2272719;61;1760;-92
2021/06/13 05:25:53;0.00;0.00;0.62;0.00;0.00;0.62;;;;;21.60;61.40;;;;;;2276106;61;1140;-92
2021/06/13 05:28:19;0.00;0.00;0.62;0.00;0.00;0.62;;;;;21.50;61.90;;;;;;2271193;61;859;-92
2021/06/13 05:30:45;0.00;0.00;0.62;0.00;0.00;0.62;;;;;21.40;62.50;;;;;;2271748;61;985;-92
2021/06/13 05:33:11;0.00;0.00;0.62;0.00;0.00;0.62;;;;;21.30;62.80;;;;;;2268446;61;946;-91
2021/06/13 05:35:38;0.00;0.00;0.62;0.00;0.00;0.62;;;;;21.20;62.70;;;;;;2268080;61;1603;-91
2021/06/13 05:38:04;0.00;0.00;0.62;0.00;0.00;0.62;;;;;21.30;62.30;;;;;;2268327;61;1950;-92
2021/06/13 05:40:29;0.00;0.00;0.62;0.00;0.00;0.62;;;;;21.70;61.10;;;;;;2274072;61;1034;-91
2021/06/13 05:42:55;398597.00;1.33;687.39;237927.00;0.79;411.19;;;;;21.30;61.80;;;;;;2271275;61;931;-92
2021/06/13 05:45:22;0.00;0.00;0.62;0.00;0.00;0.62;;;;;21.20;62.30;;;;;;2276597;61;919;-91
2021/06/13 05:47:48;71492.00;0.24;124.34;0.00;0.00;0.62;;;;;21.20;62.30;;;;;;2273167;61;1160;-91
2021/06/13 05:54:25;0.00;0.00;0.62;0.00;0.00;0.62;;;;;21.20;63.00;;;;;;2282347;61;714;-92
2021/06/13 06:00:54;0.00;0.00;0.62;0.00;0.00;0.62;;;;;21.10;62.10;;;;;;2270285;61;1171;-92
2021/06/13 06:07:01;0.00;0.00;0.62;0.00;0.00;0.62;;;;;21.30;62.40;;;;;;2271800;61;1137;-92
2021/06/13 06:13:55;0.00;0.00;0.62;0.00;0.00;0.62;;;;;21.20;62.90;;;;;;2270828;61;1149;-92
2021/06/13 06:20:58;28804.00;0.10;50.51;0.00;0.00;0.62;;;;;21.00;62.70;;;;;;2265436;61;1212;-92
2021/06/13 06:27:31;19019.00;0.06;33.57;0.00;0.00;0.62;;;;;21.30;62.30;;;;;;2253156;61;1182;-92
2021/06/13 06:33:56;23469.00;0.08;41.28;0.00;0.00;0.62;;;;;21.10;62.10;;;;;;2248733;61;1131;-92
2021/06/13 06:40:03;13255.00;0.04;23.59;0.00;0.00;0.62;;;;;21.30;61.10;;;;;;2249768;61;1208;-92
2021/06/13 06:46:13;168942.00;0.56;292.44;92666.00;0.31;160.91;;;;;21.20;62.00;;;;;;2249320;61;1076;-93
2021/06/13 06:58:55;153503.00;0.51;265.84;0.00;0.00;0.62;;;;;21.10;62.00;;;;;;2264501;56;4130;-64
2021/06/13 07:01:21;0.00;0.00;0.62;0.00;0.00;0.62;;;;;21.10;62.70;;;;;;2259130;61;2808;-64
2021/06/13 07:03:46;124583.00;0.42;215.99;0.00;0.00;0.62;;;;;21.10;62.30;;;;;;2255512;61;3591;-64
2021/06/13 07:06:12;16359.00;0.05;28.96;0.00;0.00;0.62;;;;;21.20;62.10;;;;;;2259851;61;2490;-65
2021/06/13 07:08:38;0.00;0.00;0.62;0.00;0.00;0.62;;;;;21.20;62.30;;;;;;2261134;61;4656;-65
2021/06/13 07:11:03;49154.00;0.16;85.72;0.00;0.00;0.62;;;;;21.20;62.50;;;;;;2259159;61;3538;-65
2021/06/13 07:13:29;0.00;0.00;0.62;0.00;0.00;0.62;;;;;21.20;62.80;;;;;;2259166;61;3514;-65
2021/06/13 07:15:55;12248.00;0.04;21.84;0.00;0.00;0.62;;;;;21.40;62.50;;;;;;2259141;61;2375;-65
2021/06/13 07:18:20;202354.00;0.67;349.98;13992.00;0.05;24.86;;;;;21.40;61.90;;;;;;2259617;61;3514;-65
2021/06/13 07:20:46;0.00;0.00;0.62;0.00;0.00;0.62;;;;;21.40;62.30;;;;;;2258299;61;2639;-65
2021/06/13 07:23:11;4287.00;0.01;8.05;0.00;0.00;0.62;;;;;21.30;62.10;;;;;;2258997;61;2446;-65
2021/06/13 07:25:37;5535.00;0.02;10.21;0.00;0.00;0.62;;;;;21.30;62.50;;;;;;2259700;61;3656;-65
2021/06/13 07:28:04;21127.00;0.07;37.22;0.00;0.00;0.62;;;;;21.40;61.90;;;;;;2256240;61;3612;-65
2021/06/13 07:30:30;0.00;0.00;0.62;0.00;0.00;0.62;;;;;21.50;61.20;;;;;;2257958;61;3504;-66
2021/06/13 07:32:56;0.00;0.00;0.62;0.00;0.00;0.62;;;;;21.50;61.60;;;;;;2261258;61;2438;-66
2021/06/13 07:35:22;50529.00;0.17;88.10;0.00;0.00;0.62;;;;;21.60;61.00;;;;;;2256202;61;3492;-66
2021/06/13 07:37:47;7150.00;0.02;13.01;0.00;0.00;0.62;;;;;21.90;60.30;;;;;;2259224;61;4072;-66
2021/06/13 07:40:14;246008.00;0.82;425.09;120689.00;0.40;209.27;;;;;21.80;60.20;;;;;;2259170;61;2719;-66
2021/06/13 07:42:40;10904.00;0.04;19.52;0.00;0.00;0.62;;;;;21.80;60.20;;;;;;2257658;61;3460;-66
2021/06/13 07:45:07;254179.00;0.85;439.14;158559.00;0.53;274.56;;;;;21.70;60.70;;;;;;2257437;61;3518;-66
2021/06/13 07:47:33;117150080.00;390.50;65125924.00;0.00;0.00;0.62;;;;;21.70;60.50;;;;;;2258873;61;3445;-65
2021/06/13 07:49:58;18179.00;0.06;32.12;0.00;0.00;0.62;;;;;21.70;60.70;;;;;;2253676;61;2497;-65
2021/06/13 07:52:25;189814.00;0.63;328.39;0.00;0.00;0.62;;;;;21.80;60.50;;;;;;2259778;61;3880;-65
2021/06/13 07:54:50;326446.00;1.09;563.38;0.00;0.00;0.62;;;;;22.00;60.10;;;;;;2257397;61;2786;-65
2021/06/13 07:57:16;24110.00;0.08;42.39;0.00;0.00;0.62;;;;;22.00;60.00;;;;;;2257331;61;2364;-65
2021/06/13 07:59:41;7968.00;0.03;14.43;0.00;0.00;0.62;;;;;22.00;60.50;;;;;;2257966;61;3482;-65
2021/06/13 08:02:07;14286.00;0.05;25.37;0.00;0.00;0.62;;;;;22.00;60.90;;;;;;2259165;61;3713;-65
2021/06/13 08:04:36;25538.00;0.09;44.86;0.00;0.00;0.62;;;;;22.10;60.60;;;;;;2255437;61;3421;-66
2021/06/13 08:07:02;94916.00;0.32;164.80;0.00;0.00;0.62;;;;;22.10;60.90;;;;;;2259469;61;2356;-66
2021/06/13 08:09:28;9814.00;0.03;17.63;0.00;0.00;0.62;;;;;22.10;60.30;;;;;;2259860;61;2489;-65
2021/06/13 08:11:53;12451.00;0.04;22.20;0.00;0.00;0.62;;;;;22.20;60.50;;;;;;2259201;61;3607;-65
2021/06/13 08:14:19;15074.00;0.05;26.74;0.00;0.00;0.62;;;;;22.20;60.30;;;;;;2257580;61;3117;-65
2021/06/13 08:16:45;82236.00;0.27;142.90;0.00;0.00;0.62;;;;;22.10;60.30;;;;;;2258814;61;3693;-65
2021/06/13 08:19:10;0.00;0.00;0.62;0.00;0.00;0.62;;;;;22.20;60.20;;;;;;2255586;61;2686;-66
2021/06/13 08:21:36;7158.00;0.02;13.03;0.00;0.00;0.62;;;;;22.20;60.10;;;;;;2258729;61;3344;-66
2021/06/13 08:24:03;0.00;0.00;0.62;0.00;0.00;0.62;;;;;22.20;59.80;;;;;;2258876;61;2437;-65
2021/06/13 08:26:28;0.00;0.00;0.62;0.00;0.00;0.62;;;;;22.40;59.80;;;;;;2255555;61;3375;-66
2021/06/13 08:28:54;0.00;0.00;0.62;0.00;0.00;0.62;;;;;22.50;59.50;;;;;;2257942;61;2449;-64
2021/06/13 08:31:22;0.00;0.00;0.62;0.00;0.00;0.62;;;;;22.50;59.20;;;;;;2259433;61;2462;-66
2021/06/13 08:33:48;0.00;0.00;0.62;0.00;0.00;0.62;;;;;22.50;59.00;;;;;;2259206;61;3557;-65
2021/06/13 08:36:14;0.00;0.00;0.62;0.00;0.00;0.62;;;;;22.60;57.80;;;;;;2260162;61;3620;-66
2021/06/13 08:38:39;0.00;0.00;0.62;0.00;0.00;0.62;;;;;22.70;58.10;;;;;;2259265;61;3554;-65
2021/06/13 08:41:05;0.00;0.00;0.62;0.00;0.00;0.62;;;;;22.80;58.00;;;;;;2259275;61;3825;-66
2021/06/13 08:43:31;5534.00;0.02;10.21;0.00;0.00;0.62;;;;;22.70;58.40;;;;;;2258291;61;3548;-66
2021/06/13 08:45:57;0.00;0.00;0.62;0.00;0.00;0.62;;;;;22.70;58.70;;;;;;2255671;61;2424;-66
2021/06/13 08:48:26;0.00;0.00;0.62;0.00;0.00;0.62;;;;;22.70;59.40;;;;;;2258758;61;2517;-66
2021/06/13 08:50:52;29288.00;0.10;51.35;0.00;0.00;0.62;;;;;22.80;59.00;;;;;;2256005;61;5154;-65
2021/06/13 08:53:17;0.00;0.00;0.62;0.00;0.00;0.62;;;;;22.90;58.90;;;;;;2256059;61;3595;-66
2021/06/13 08:55:43;0.00;0.00;0.62;0.00;0.00;0.62;;;;;22.80;58.40;;;;;;2259211;61;3284;-66
2021/06/13 08:58:10;0.00;0.00;0.62;0.00;0.00;0.62;;;;;22.80;58.00;;;;;;2259635;61;2473;-66
2021/06/13 09:00:36;0.00;0.00;0.62;0.00;0.00;0.62;;;;;22.80;58.50;;;;;;2259813;61;3345;-65
2021/06/13 09:03:04;0.00;0.00;0.62;0.00;0.00;0.62;;;;;22.90;58.10;;;;;;2259426;61;2470;-66
2021/06/13 09:05:30;0.00;0.00;0.62;0.00;0.00;0.62;;;;;22.90;58.10;;;;;;2258756;61;2513;-66
2021/06/13 09:07:59;0.00;0.00;0.62;0.00;0.00;0.62;;;;;23.00;57.90;;;;;;2257478;61;3552;-65
2021/06/13 09:10:27;0.00;0.00;0.62;0.00;0.00;0.62;;;;;23.00;57.00;;;;;;2260324;61;3709;-65
2021/06/13 09:13:09;0.00;0.00;0.62;0.00;0.00;0.62;;;;;23.10;57.30;;;;;;2257284;61;3673;-66
2021/06/13 09:15:55;0.00;0.00;0.62;0.00;0.00;0.62;;;;;23.20;57.30;;;;;;2259731;61;2442;-66
2021/06/13 09:18:28;0.00;0.00;0.62;0.00;0.00;0.62;;;;;23.30;55.90;;;;;;2257051;61;3508;-66
2021/06/13 09:20:54;6797.00;0.02;12.40;0.00;0.00;0.62;;;;;23.90;54.30;;;;;;2259408;61;2927;-65
2021/06/13 09:23:20;9326.00;0.03;16.78;0.00;0.00;0.62;;;;;24.30;53.90;;;;;;2258929;61;3569;-66
2021/06/13 09:25:46;10909.00;0.04;19.52;0.00;0.00;0.62;;;;;24.50;53.70;;;;;;2260143;61;2483;-66
2021/06/13 09:28:21;20469.00;0.07;36.08;0.00;0.00;0.62;;;;;24.80;53.00;;;;;;2259461;61;3274;-66
2021/06/13 09:30:50;0.00;0.00;0.62;0.00;0.00;0.62;;;;;25.00;52.60;;;;;;2258283;61;3669;-66
2021/06/13 09:33:30;9595.00;0.03;17.25;0.00;0.00;0.62;;;;;25.20;51.90;;;;;;2257763;61;2600;-66
2021/06/13 09:35:56;0.00;0.00;0.62;0.00;0.00;0.62;;;;;25.30;51.70;;;;;;2258658;61;3619;-66
2021/06/13 09:38:39;0.00;0.00;0.62;0.00;0.00;0.62;;;;;25.40;51.00;;;;;;2259069;61;2732;-66
2021/06/13 09:41:12;0.00;0.00;0.62;0.00;0.00;0.62;;;;;25.40;51.20;;;;;;2259153;61;3374;-66
2021/06/13 09:43:47;0.00;0.00;0.62;0.00;0.00;0.62;;;;;25.60;50.60;;;;;;2260961;61;3587;-66
2021/06/13 09:46:14;0.00;0.00;0.62;0.00;0.00;0.62;;;;;25.70;49.90;;;;;;2258477;61;3717;-67
2021/06/13 09:48:41;0.00;0.00;0.62;0.00;0.00;0.62;;;;;25.90;49.30;;;;;;2258365;61;2407;-66
2021/06/13 09:51:12;0.00;0.00;0.62;0.00;0.00;0.62;;;;;25.90;49.40;;;;;;2258184;61;3617;-66
2021/06/13 09:53:45;0.00;0.00;0.62;0.00;0.00;0.62;;;;;25.90;49.90;;;;;;2258401;61;3515;-67
2021/06/13 09:56:10;95043.00;0.32;165.01;0.00;0.00;0.62;;;;;26.00;48.90;;;;;;2258694;61;2899;-65
2021/06/13 09:59:01;22938.00;0.08;40.36;0.00;0.00;0.62;;;;;26.10;48.50;;;;;;2259826;61;3459;-67
2021/06/13 10:01:35;0.00;0.00;0.62;0.00;0.00;0.62;;;;;26.10;50.00;;;;;;2257403;61;3536;-68
2021/06/13 10:04:01;0.00;0.00;0.62;0.00;0.00;0.62;;;;;26.20;50.30;;;;;;2259982;61;3425;-66
2021/06/13 10:06:35;0.00;0.00;0.62;0.00;0.00;0.62;;;;;26.20;50.60;;;;;;2260058;61;2543;-65
2021/06/13 10:09:02;0.00;0.00;0.62;0.00;0.00;0.62;;;;;26.30;50.60;;;;;;2260247;61;2374;-66
2021/06/13 10:11:28;0.00;0.00;0.62;0.00;0.00;0.62;;;;;26.40;50.30;;;;;;2260067;61;3549;-65
2021/06/13 10:13:57;0.00;0.00;0.62;0.00;0.00;0.62;;;;;26.50;49.60;;;;;;2260779;61;3621;-68
2021/06/13 10:16:31;0.00;0.00;0.62;0.00;0.00;0.62;;;;;26.50;49.00;;;;;;2259766;61;3924;-65
2021/06/13 10:19:05;0.00;0.00;0.62;0.00;0.00;0.62;;;;;26.60;50.10;;;;;;2262779;61;2423;-67
2021/06/13 10:21:35;0.00;0.00;0.62;0.00;0.00;0.62;;;;;26.70;50.10;;;;;;2261731;61;4413;-62
2021/06/13 10:24:04;0.00;0.00;0.62;0.00;0.00;0.62;;;;;26.80;49.90;;;;;;2263570;61;2590;-62
2021/06/13 10:26:29;0.00;0.00;0.62;0.00;0.00;0.62;;;;;26.80;49.90;;;;;;2261710;61;4569;-64
2021/06/13 10:28:55;0.00;0.00;0.62;0.00;0.00;0.62;;;;;26.90;49.50;;;;;;2261845;61;2440;-65
2021/06/13 10:31:21;0.00;0.00;0.62;0.00;0.00;0.62;;;;;26.90;49.90;;;;;;2259944;61;3966;-66
2021/06/13 10:33:47;0.00;0.00;0.62;0.00;0.00;0.62;;;;;26.90;49.30;;;;;;2261415;61;2621;-64
2021/06/13 10:36:13;0.00;0.00;0.62;0.00;0.00;0.62;;;;;26.90;48.50;;;;;;2262819;61;4948;-62
2021/06/13 10:38:38;0.00;0.00;0.62;0.00;0.00;0.62;;;;;26.70;49.40;;;;;;2259854;61;4350;-62
2021/06/13 10:41:05;0.00;0.00;0.62;0.00;0.00;0.62;;;;;25.70;51.20;;;;;;2263412;61;2663;-64
2021/06/13 10:43:31;134275.00;0.45;232.70;0.00;0.00;0.62;;;;;25.10;52.80;;;;;;2258504;61;3922;-68
2021/06/13 10:46:09;273072.00;0.91;471.63;77668.00;0.26;135.01;;;;;24.70;53.00;;;;;;2260763;61;4166;-68
2021/06/13 10:48:56;0.00;0.00;0.62;0.00;0.00;0.62;;;;;24.50;53.70;;;;;;2260501;61;3915;-65
2021/06/13 10:51:26;0.00;0.00;0.62;0.00;0.00;0.62;;;;;24.50;54.20;;;;;;2262698;61;4000;-61
2021/06/13 10:53:51;0.00;0.00;0.62;0.00;0.00;0.62;;;;;24.40;55.20;;;;;;2263213;61;3659;-65
2021/06/13 10:56:24;0.00;0.00;0.62;0.00;0.00;0.62;;;;;24.30;55.30;;;;;;2260183;61;4686;-65
2021/06/13 10:58:50;0.00;0.00;0.62;0.00;0.00;0.62;;;;;24.30;55.10;;;;;;2263301;61;2541;-65
2021/06/13 11:01:26;0.00;0.00;0.62;0.00;0.00;0.62;;;;;24.30;55.70;;;;;;2262617;61;3652;-67
2021/06/13 11:04:02;0.00;0.00;0.62;0.00;0.00;0.62;;;;;24.40;55.30;;;;;;2258508;61;3446;-66
2021/06/13 11:06:45;126294200.00;420.98;81614448.00;0.00;0.00;0.62;;;;;24.30;55.50;;;;;;2260288;61;3932;-65
2021/06/13 11:09:13;0.00;0.00;0.62;0.00;0.00;0.62;;;;;24.20;56.00;;;;;;2263552;61;4120;-66
2021/06/13 11:11:40;0.00;0.00;0.62;0.00;0.00;0.62;;;;;24.20;55.50;;;;;;2262064;61;4612;-66
2021/06/13 11:14:24;186103.00;0.62;322.00;0.00;0.00;0.62;;;;;24.20;55.40;;;;;;2261390;61;4190;-66
2021/06/13 11:16:54;0.00;0.00;0.62;0.00;0.00;0.62;;;;;24.30;55.20;;;;;;2262505;61;4312;-65